sensor_id;sensor_type;location;lat;lon;timestamp;P1;durP1;ratioP1;P2;durP2;ratioP2
11620;SDS011;5866;49.094;11.900;2023-04-16T00:02:28;10.73;;;9.73;;
11620;SDS011;5866;49.094;11.900;2023-04-16T00:04:56;11.37;;;10.27;;
11620;SDS011;5866;49.094;11.900;2023-04-16T00:07:25;11.20;;;10.20;;
11620;SDS011;5866;49.094;11.900;2023-04-16T00:09:53;10.67;;;9.67;;
11620;SDS011;5866;49.094;11.900;2023-04-16T00:12:20;10.47;;;9.37;;
11620;SDS011;5866;49.094;11.900;2023-04-16T00:14:49;10.53;;;9.53;;
11620;SDS011;5866;49.094;11.900;2023-04-16T00:17:16;10.07;;;8.87;;
11620;SDS011;5866;49.094;11.900;2023-04-16T00:19:44;9.40;;;8.43;;
11620;SDS011;5866;49.094;11.900;2023-04-16T00:22:11;10.27;;;9.33;;
11620;SDS011;5866;49.094;11.900;2023-04-16T00:24:40;11.70;;;10.60;;
11620;SDS011;5866;49.094;11.900;2023-04-16T00:27:08;12.07;;;11.03;;
11620;SDS011;5866;49.094;11.900;2023-04-16T00:29:35;12.67;;;11.37;;
11620;SDS011;5866;49.094;11.900;2023-04-16T00:32:03;11.97;;;10.87;;
11620;SDS011;5866;49.094;11.900;2023-04-16T00:34:31;10.80;;;9.80;;
11620;SDS011;5866;49.094;11.900;2023-04-16T00:36:58;12.37;;;11.27;;
11620;SDS011;5866;49.094;11.900;2023-04-16T00:39:26;12.13;;;11.03;;
11620;SDS011;5866;49.094;11.900;2023-04-16T00:41:55;12.40;;;10.80;;
11620;SDS011;5866;49.094;11.900;2023-04-16T00:44:22;11.00;;;10.00;;
11620;SDS011;5866;49.094;11.900;2023-04-16T00:46:50;11.87;;;10.73;;
11620;SDS011;5866;49.094;11.900;2023-04-16T00:49:17;11.10;;;10.10;;
11620;SDS011;5866;49.094;11.900;2023-04-16T00:51:46;11.67;;;10.47;;
11620;SDS011;5866;49.094;11.900;2023-04-16T00:54:14;9.83;;;8.93;;
11620;SDS011;5866;49.094;11.900;2023-04-16T00:56:41;9.27;;;8.27;;
11620;SDS011;5866;49.094;11.900;2023-04-16T00:59:10;8.43;;;7.57;;
11620;SDS011;5866;49.094;11.900;2023-04-16T01:01:38;9.00;;;8.20;;
11620;SDS011;5866;49.094;11.900;2023-04-16T01:04:05;9.87;;;9.07;;
11620;SDS011;5866;49.094;11.900;2023-04-16T01:06:33;9.23;;;8.43;;
11620;SDS011;5866;49.094;11.900;2023-04-16T01:09:01;9.80;;;9.00;;
11620;SDS011;5866;49.094;11.900;2023-04-16T01:11:29;9.70;;;8.83;;
11620;SDS011;5866;49.094;11.900;2023-04-16T01:13:56;9.23;;;8.43;;
11620;SDS011;5866;49.094;11.900;2023-04-16T01:16:25;9.27;;;8.47;;
11620;SDS011;5866;49.094;11.900;2023-04-16T01:18:52;9.90;;;9.10;;
11620;SDS011;5866;49.094;11.900;2023-04-16T01:21:21;11.13;;;10.13;;
11620;SDS011;5866;49.094;11.900;2023-04-16T01:23:49;9.97;;;9.07;;
11620;SDS011;5866;49.094;11.900;2023-04-16T01:26:16;9.00;;;8.20;;
11620;SDS011;5866;49.094;11.900;2023-04-16T01:28:44;8.57;;;7.87;;
11620;SDS011;5866;49.094;11.900;2023-04-16T01:31:11;9.40;;;8.60;;
11620;SDS011;5866;49.094;11.900;2023-04-16T01:33:39;9.83;;;9.00;;
11620;SDS011;5866;49.094;11.900;2023-04-16T01:36:06;9.80;;;9.00;;
11620;SDS011;5866;49.094;11.900;2023-04-16T01:38:35;9.47;;;8.67;;
11620;SDS011;5866;49.094;11.900;2023-04-16T01:41:03;8.87;;;8.07;;
11620;SDS011;5866;49.094;11.900;2023-04-16T01:43:30;9.43;;;8.63;;
11620;SDS011;5866;49.094;11.900;2023-04-16T01:45:58;9.87;;;9.00;;
11620;SDS011;5866;49.094;11.900;2023-04-16T01:48:38;9.83;;;8.93;;
11620;SDS011;5866;49.094;11.900;2023-04-16T01:51:06;8.90;;;8.10;;
11620;SDS011;5866;49.094;11.900;2023-04-16T01:53:35;9.40;;;8.60;;
11620;SDS011;5866;49.094;11.900;2023-04-16T01:56:03;9.43;;;8.63;;
11620;SDS011;5866;49.094;11.900;2023-04-16T01:58:32;8.63;;;7.73;;
11620;SDS011;5866;49.094;11.900;2023-04-16T02:00:59;8.47;;;7.77;;
11620;SDS011;5866;49.094;11.900;2023-04-16T02:03:27;8.23;;;7.63;;
11620;SDS011;5866;49.094;11.900;2023-04-16T02:05:55;8.10;;;7.30;;
11620;SDS011;5866;49.094;11.900;2023-04-16T02:08:22;7.93;;;6.63;;
11620;SDS011;5866;49.094;11.900;2023-04-16T02:10:51;6.93;;;6.33;;
11620;SDS011;5866;49.094;11.900;2023-04-16T02:13:18;6.90;;;6.30;;
11620;SDS011;5866;49.094;11.900;2023-04-16T02:15:46;8.20;;;7.50;;
11620;SDS011;5866;49.094;11.900;2023-04-16T02:18:15;7.67;;;7.00;;
11620;SDS011;5866;49.094;11.900;2023-04-16T02:20:42;6.83;;;6.23;;
11620;SDS011;5866;49.094;11.900;2023-04-16T02:23:11;7.37;;;6.77;;
11620;SDS011;5866;49.094;11.900;2023-04-16T02:25:40;7.47;;;6.87;;
11620;SDS011;5866;49.094;11.900;2023-04-16T02:28:11;7.90;;;7.20;;
11620;SDS011;5866;49.094;11.900;2023-04-16T02:30:40;7.77;;;7.07;;
11620;SDS011;5866;49.094;11.900;2023-04-16T02:33:09;7.43;;;6.83;;
11620;SDS011;5866;49.094;11.900;2023-04-16T02:35:38;7.83;;;7.13;;
11620;SDS011;5866;49.094;11.900;2023-04-16T02:38:06;7.17;;;6.57;;
11620;SDS011;5866;49.094;11.900;2023-04-16T02:40:34;7.60;;;6.90;;
11620;SDS011;5866;49.094;11.900;2023-04-16T02:43:02;7.10;;;6.40;;
11620;SDS011;5866;49.094;11.900;2023-04-16T02:45:31;7.73;;;7.03;;
11620;SDS011;5866;49.094;11.900;2023-04-16T02:47:58;7.00;;;6.40;;
11620;SDS011;5866;49.094;11.900;2023-04-16T02:50:26;7.00;;;6.40;;
11620;SDS011;5866;49.094;11.900;2023-04-16T02:52:54;7.03;;;6.47;;
11620;SDS011;5866;49.094;11.900;2023-04-16T02:55:21;6.70;;;6.10;;
11620;SDS011;5866;49.094;11.900;2023-04-16T02:57:49;7.30;;;6.70;;
11620;SDS011;5866;49.094;11.900;2023-04-16T03:00:18;7.67;;;7.00;;
11620;SDS011;5866;49.094;11.900;2023-04-16T03:02:47;7.73;;;7.03;;
11620;SDS011;5866;49.094;11.900;2023-04-16T03:05:14;6.93;;;6.33;;
11620;SDS011;5866;49.094;11.900;2023-04-16T03:07:42;8.20;;;7.50;;
11620;SDS011;5866;49.094;11.900;2023-04-16T03:10:10;7.13;;;6.53;;
11620;SDS011;5866;49.094;11.900;2023-04-16T03:12:38;7.97;;;7.27;;
11620;SDS011;5866;49.094;11.900;2023-04-16T03:15:06;7.33;;;6.53;;
11620;SDS011;5866;49.094;11.900;2023-04-16T03:17:34;8.07;;;7.37;;
11620;SDS011;5866;49.094;11.900;2023-04-16T03:20:04;7.97;;;7.23;;
11620;SDS011;5866;49.094;11.900;2023-04-16T03:22:32;7.37;;;6.70;;
11620;SDS011;5866;49.094;11.900;2023-04-16T03:25:00;8.27;;;7.57;;
11620;SDS011;5866;49.094;11.900;2023-04-16T03:27:27;7.20;;;6.60;;
11620;SDS011;5866;49.094;11.900;2023-04-16T03:29:55;8.47;;;7.73;;
11620;SDS011;5866;49.094;11.900;2023-04-16T03:32:23;7.77;;;7.17;;
11620;SDS011;5866;49.094;11.900;2023-04-16T03:34:50;7.87;;;7.07;;
11620;SDS011;5866;49.094;11.900;2023-04-16T03:37:19;8.53;;;7.73;;
11620;SDS011;5866;49.094;11.900;2023-04-16T03:39:47;8.20;;;7.50;;
11620;SDS011;5866;49.094;11.900;2023-04-16T03:42:14;8.43;;;7.63;;
11620;SDS011;5866;49.094;11.900;2023-04-16T03:44:42;7.70;;;7.10;;
11620;SDS011;5866;49.094;11.900;2023-04-16T03:47:09;8.30;;;7.60;;
11620;SDS011;5866;49.094;11.900;2023-04-16T03:49:37;7.80;;;7.10;;
11620;SDS011;5866;49.094;11.900;2023-04-16T03:52:04;8.83;;;8.13;;
11620;SDS011;5866;49.094;11.900;2023-04-16T03:54:33;8.57;;;7.87;;
11620;SDS011;5866;49.094;11.900;2023-04-16T03:57:01;7.47;;;6.87;;
11620;SDS011;5866;49.094;11.900;2023-04-16T03:59:28;8.67;;;7.87;;
11620;SDS011;5866;49.094;11.900;2023-04-16T04:01:56;8.37;;;7.77;;
11620;SDS011;5866;49.094;11.900;2023-04-16T04:04:23;9.50;;;8.60;;
11620;SDS011;5866;49.094;11.900;2023-04-16T04:06:51;7.00;;;6.50;;
11620;SDS011;5866;49.094;11.900;2023-04-16T04:09:18;7.53;;;6.93;;
11620;SDS011;5866;49.094;11.900;2023-04-16T04:11:47;7.17;;;6.67;;
11620;SDS011;5866;49.094;11.900;2023-04-16T04:14:15;7.00;;;6.40;;
11620;SDS011;5866;49.094;11.900;2023-04-16T04:16:42;7.00;;;6.40;;
11620;SDS011;5866;49.094;11.900;2023-04-16T04:19:10;7.27;;;6.70;;
11620;SDS011;5866;49.094;11.900;2023-04-16T04:21:37;7.80;;;7.10;;
11620;SDS011;5866;49.094;11.900;2023-04-16T04:24:05;7.47;;;6.87;;
11620;SDS011;5866;49.094;11.900;2023-04-16T04:26:32;7.00;;;6.50;;
11620;SDS011;5866;49.094;11.900;2023-04-16T04:29:01;7.40;;;6.80;;
11620;SDS011;5866;49.094;11.900;2023-04-16T04:31:29;7.33;;;6.73;;
11620;SDS011;5866;49.094;11.900;2023-04-16T04:33:56;7.60;;;7.00;;
11620;SDS011;5866;49.094;11.900;2023-04-16T04:36:24;7.90;;;7.20;;
11620;SDS011;5866;49.094;11.900;2023-04-16T04:38:52;7.43;;;6.83;;
11620;SDS011;5866;49.094;11.900;2023-04-16T04:41:19;7.10;;;6.50;;
11620;SDS011;5866;49.094;11.900;2023-04-16T04:43:47;7.40;;;6.80;;
11620;SDS011;5866;49.094;11.900;2023-04-16T04:46:16;8.70;;;8.07;;
11620;SDS011;5866;49.094;11.900;2023-04-16T04:48:43;7.23;;;6.73;;
11620;SDS011;5866;49.094;11.900;2023-04-16T04:51:11;7.47;;;6.97;;
11620;SDS011;5866;49.094;11.900;2023-04-16T04:53:38;7.27;;;6.67;;
11620;SDS011;5866;49.094;11.900;2023-04-16T04:56:06;7.67;;;7.07;;
11620;SDS011;5866;49.094;11.900;2023-04-16T04:58:38;8.03;;;7.43;;
11620;SDS011;5866;49.094;11.900;2023-04-16T05:01:06;7.17;;;6.57;;
11620;SDS011;5866;49.094;11.900;2023-04-16T05:03:35;7.70;;;7.10;;
11620;SDS011;5866;49.094;11.900;2023-04-16T05:06:03;7.00;;;6.38;;
11620;SDS011;5866;49.094;11.900;2023-04-16T05:08:30;6.93;;;6.33;;
11620;SDS011;5866;49.094;11.900;2023-04-16T05:10:58;8.13;;;7.22;;
11620;SDS011;5866;49.094;11.900;2023-04-16T05:13:26;7.70;;;7.00;;
11620;SDS011;5866;49.094;11.900;2023-04-16T05:15:54;8.33;;;7.73;;
11620;SDS011;5866;49.094;11.900;2023-04-16T05:18:21;6.93;;;6.37;;
11620;SDS011;5866;49.094;11.900;2023-04-16T05:20:50;8.10;;;7.50;;
11620;SDS011;5866;49.094;11.900;2023-04-16T05:23:17;8.80;;;8.20;;
11620;SDS011;5866;49.094;11.900;2023-04-16T05:25:45;7.43;;;6.93;;
11620;SDS011;5866;49.094;11.900;2023-04-16T05:28:12;8.07;;;7.57;;
11620;SDS011;5866;49.094;11.900;2023-04-16T05:30:40;9.45;;;8.80;;
11620;SDS011;5866;49.094;11.900;2023-04-16T05:33:07;9.45;;;8.85;;
11620;SDS011;5866;49.094;11.900;2023-04-16T05:35:35;10.48;;;9.88;;
11620;SDS011;5866;49.094;11.900;2023-04-16T05:38:04;9.05;;;8.50;;
11620;SDS011;5866;49.094;11.900;2023-04-16T05:40:31;3.67;;;3.47;;
11620;SDS011;5866;49.094;11.900;2023-04-16T05:42:59;3.22;;;3.03;;
11620;SDS011;5866;49.094;11.900;2023-04-16T05:45:26;2.88;;;2.67;;
11620;SDS011;5866;49.094;11.900;2023-04-16T05:47:54;2.33;;;2.22;;
11620;SDS011;5866;49.094;11.900;2023-04-16T05:50:22;2.10;;;2.00;;
11620;SDS011;5866;49.094;11.900;2023-04-16T05:52:49;2.03;;;1.92;;
11620;SDS011;5866;49.094;11.900;2023-04-16T05:55:18;1.70;;;1.60;;
11620;SDS011;5866;49.094;11.900;2023-04-16T05:57:45;2.30;;;2.10;;
11620;SDS011;5866;49.094;11.900;2023-04-16T06:00:13;1.98;;;1.88;;
11620;SDS011;5866;49.094;11.900;2023-04-16T06:02:41;2.10;;;2.00;;
11620;SDS011;5866;49.094;11.900;2023-04-16T06:05:08;2.10;;;2.00;;
11620;SDS011;5866;49.094;11.900;2023-04-16T06:07:36;2.30;;;2.20;;
11620;SDS011;5866;49.094;11.900;2023-04-16T06:10:04;2.05;;;1.95;;
11620;SDS011;5866;49.094;11.900;2023-04-16T06:12:33;2.00;;;1.80;;
11620;SDS011;5866;49.094;11.900;2023-04-16T06:15:01;1.80;;;1.70;;
11620;SDS011;5866;49.094;11.900;2023-04-16T06:17:28;1.63;;;1.52;;
11620;SDS011;5866;49.094;11.900;2023-04-16T06:19:56;1.80;;;1.70;;
11620;SDS011;5866;49.094;11.900;2023-04-16T06:22:23;1.70;;;1.50;;
11620;SDS011;5866;49.094;11.900;2023-04-16T06:24:51;1.75;;;1.65;;
11620;SDS011;5866;49.094;11.900;2023-04-16T06:27:19;1.63;;;1.52;;
11620;SDS011;5866;49.094;11.900;2023-04-16T06:29:47;1.77;;;1.67;;
11620;SDS011;5866;49.094;11.900;2023-04-16T06:32:15;1.65;;;1.55;;
11620;SDS011;5866;49.094;11.900;2023-04-16T06:34:43;2.88;;;1.70;;
11620;SDS011;5866;49.094;11.900;2023-04-16T06:37:11;1.73;;;1.63;;
11620;SDS011;5866;49.094;11.900;2023-04-16T06:39:38;1.67;;;1.58;;
11620;SDS011;5866;49.094;11.900;2023-04-16T06:42:06;1.88;;;1.77;;
11620;SDS011;5866;49.094;11.900;2023-04-16T06:44:34;2.30;;;2.20;;
11620;SDS011;5866;49.094;11.900;2023-04-16T06:47:03;2.40;;;1.90;;
11620;SDS011;5866;49.094;11.900;2023-04-16T06:49:30;2.00;;;1.90;;
11620;SDS011;5866;49.094;11.900;2023-04-16T06:51:58;1.90;;;1.80;;
11620;SDS011;5866;49.094;11.900;2023-04-16T06:54:25;2.17;;;2.08;;
11620;SDS011;5866;49.094;11.900;2023-04-16T06:56:53;2.15;;;1.80;;
11620;SDS011;5866;49.094;11.900;2023-04-16T06:59:20;1.98;;;1.88;;
11620;SDS011;5866;49.094;11.900;2023-04-16T07:01:48;1.67;;;1.58;;
11620;SDS011;5866;49.094;11.900;2023-04-16T07:04:17;1.83;;;1.73;;
11620;SDS011;5866;49.094;11.900;2023-04-16T07:06:45;2.00;;;1.90;;
11620;SDS011;5866;49.094;11.900;2023-04-16T07:09:13;1.77;;;1.67;;
11620;SDS011;5866;49.094;11.900;2023-04-16T07:11:40;2.00;;;1.83;;
11620;SDS011;5866;49.094;11.900;2023-04-16T07:14:08;2.00;;;1.90;;
11620;SDS011;5866;49.094;11.900;2023-04-16T07:16:35;1.90;;;1.80;;
11620;SDS011;5866;49.094;11.900;2023-04-16T07:19:03;2.20;;;2.10;;
11620;SDS011;5866;49.094;11.900;2023-04-16T07:21:32;1.70;;;1.60;;
11620;SDS011;5866;49.094;11.900;2023-04-16T07:24:00;2.38;;;1.95;;
11620;SDS011;5866;49.094;11.900;2023-04-16T07:26:27;1.90;;;1.80;;
11620;SDS011;5866;49.094;11.900;2023-04-16T07:28:55;2.03;;;1.92;;
11620;SDS011;5866;49.094;11.900;2023-04-16T07:31:22;1.80;;;1.70;;
11620;SDS011;5866;49.094;11.900;2023-04-16T07:33:50;2.42;;;1.52;;
11620;SDS011;5866;49.094;11.900;2023-04-16T07:36:17;1.80;;;1.70;;
11620;SDS011;5866;49.094;11.900;2023-04-16T07:38:46;1.75;;;1.60;;
11620;SDS011;5866;49.094;11.900;2023-04-16T07:41:14;1.95;;;1.85;;
11620;SDS011;5866;49.094;11.900;2023-04-16T07:43:41;2.03;;;1.92;;
11620;SDS011;5866;49.094;11.900;2023-04-16T07:46:09;3.33;;;2.00;;
11620;SDS011;5866;49.094;11.900;2023-04-16T07:48:36;2.15;;;2.05;;
11620;SDS011;5866;49.094;11.900;2023-04-16T07:51:04;1.90;;;1.80;;
11620;SDS011;5866;49.094;11.900;2023-04-16T07:53:31;2.47;;;2.28;;
11620;SDS011;5866;49.094;11.900;2023-04-16T07:56:00;2.05;;;1.95;;
11620;SDS011;5866;49.094;11.900;2023-04-16T07:58:28;2.20;;;2.10;;
11620;SDS011;5866;49.094;11.900;2023-04-16T08:00:55;2.25;;;2.03;;
11620;SDS011;5866;49.094;11.900;2023-04-16T08:03:23;3.15;;;2.95;;
11620;SDS011;5866;49.094;11.900;2023-04-16T08:05:51;2.25;;;2.15;;
11620;SDS011;5866;49.094;11.900;2023-04-16T08:08:18;2.30;;;2.20;;
11620;SDS011;5866;49.094;11.900;2023-04-16T08:10:46;2.95;;;2.75;;
11620;SDS011;5866;49.094;11.900;2023-04-16T08:13:15;2.25;;;2.15;;
11620;SDS011;5866;49.094;11.900;2023-04-16T08:15:42;2.08;;;1.98;;
11620;SDS011;5866;49.094;11.900;2023-04-16T08:18:09;2.17;;;2.08;;
11620;SDS011;5866;49.094;11.900;2023-04-16T08:20:40;2.45;;;2.25;;
11620;SDS011;5866;49.094;11.900;2023-04-16T08:23:08;3.00;;;2.80;;
11620;SDS011;5866;49.094;11.900;2023-04-16T08:25:36;2.60;;;2.40;;
11620;SDS011;5866;49.094;11.900;2023-04-16T08:28:03;3.05;;;2.47;;
11620;SDS011;5866;49.094;11.900;2023-04-16T08:30:32;2.58;;;2.38;;
11620;SDS011;5866;49.094;11.900;2023-04-16T08:33:00;2.00;;;1.90;;
11620;SDS011;5866;49.094;11.900;2023-04-16T08:35:28;2.33;;;2.13;;
11620;SDS011;5866;49.094;11.900;2023-04-16T08:37:55;2.10;;;2.00;;
11620;SDS011;5866;49.094;11.900;2023-04-16T08:40:27;2.00;;;1.90;;
11620;SDS011;5866;49.094;11.900;2023-04-16T08:42:57;1.60;;;1.50;;
11620;SDS011;5866;49.094;11.900;2023-04-16T08:45:26;1.70;;;1.60;;
11620;SDS011;5866;49.094;11.900;2023-04-16T08:47:55;1.70;;;1.60;;
11620;SDS011;5866;49.094;11.900;2023-04-16T08:50:23;1.70;;;1.60;;
11620;SDS011;5866;49.094;11.900;2023-04-16T08:52:52;1.88;;;1.77;;
11620;SDS011;5866;49.094;11.900;2023-04-16T08:55:25;1.98;;;1.88;;
11620;SDS011;5866;49.094;11.900;2023-04-16T08:57:57;1.75;;;1.65;;
11620;SDS011;5866;49.094;11.900;2023-04-16T09:00:27;1.95;;;1.85;;
11620;SDS011;5866;49.094;11.900;2023-04-16T09:02:59;1.83;;;1.73;;
11620;SDS011;5866;49.094;11.900;2023-04-16T09:05:27;2.30;;;2.10;;
11620;SDS011;5866;49.094;11.900;2023-04-16T09:07:55;2.00;;;1.90;;
11620;SDS011;5866;49.094;11.900;2023-04-16T09:10:23;1.80;;;1.70;;
11620;SDS011;5866;49.094;11.900;2023-04-16T09:12:53;1.95;;;1.85;;
11620;SDS011;5866;49.094;11.900;2023-04-16T09:15:22;2.10;;;2.00;;
11620;SDS011;5866;49.094;11.900;2023-04-16T09:17:50;2.00;;;1.90;;
11620;SDS011;5866;49.094;11.900;2023-04-16T09:20:19;1.83;;;1.73;;
11620;SDS011;5866;49.094;11.900;2023-04-16T09:22:47;1.95;;;1.85;;
11620;SDS011;5866;49.094;11.900;2023-04-16T09:25:15;2.08;;;1.98;;
11620;SDS011;5866;49.094;11.900;2023-04-16T09:27:43;2.30;;;1.83;;
11620;SDS011;5866;49.094;11.900;2023-04-16T09:30:20;2.10;;;2.00;;
11620;SDS011;5866;49.094;11.900;2023-04-16T09:32:49;1.70;;;1.60;;
11620;SDS011;5866;49.094;11.900;2023-04-16T09:35:18;2.00;;;1.90;;
11620;SDS011;5866;49.094;11.900;2023-04-16T09:37:53;2.00;;;1.90;;
11620;SDS011;5866;49.094;11.900;2023-04-16T09:40:25;2.10;;;2.00;;
11620;SDS011;5866;49.094;11.900;2023-04-16T09:42:56;2.00;;;1.90;;
11620;SDS011;5866;49.094;11.900;2023-04-16T09:45:28;2.15;;;2.00;;
11620;SDS011;5866;49.094;11.900;2023-04-16T09:48:01;1.98;;;1.88;;
11620;SDS011;5866;49.094;11.900;2023-04-16T09:50:31;1.88;;;1.77;;
11620;SDS011;5866;49.094;11.900;2023-04-16T09:53:00;1.83;;;1.73;;
11620;SDS011;5866;49.094;11.900;2023-04-16T09:55:28;2.55;;;1.92;;
11620;SDS011;5866;49.094;11.900;2023-04-16T09:57:59;2.60;;;2.40;;
11620;SDS011;5866;49.094;11.900;2023-04-16T10:00:27;2.40;;;2.20;;
11620;SDS011;5866;49.094;11.900;2023-04-16T10:03:01;2.00;;;1.90;;
11620;SDS011;5866;49.094;11.900;2023-04-16T10:05:32;2.50;;;2.30;;
11620;SDS011;5866;49.094;11.900;2023-04-16T10:07:59;2.28;;;2.08;;
11620;SDS011;5866;49.094;11.900;2023-04-16T10:10:27;2.88;;;2.10;;
11620;SDS011;5866;49.094;11.900;2023-04-16T10:12:55;2.08;;;1.98;;
11620;SDS011;5866;49.094;11.900;2023-04-16T10:15:23;2.10;;;2.00;;
11620;SDS011;5866;49.094;11.900;2023-04-16T10:17:51;1.80;;;1.70;;
11620;SDS011;5866;49.094;11.900;2023-04-16T10:20:20;1.90;;;1.80;;
11620;SDS011;5866;49.094;11.900;2023-04-16T10:22:50;2.10;;;2.00;;
11620;SDS011;5866;49.094;11.900;2023-04-16T10:25:18;1.92;;;1.83;;
11620;SDS011;5866;49.094;11.900;2023-04-16T10:27:46;1.95;;;1.85;;
11620;SDS011;5866;49.094;11.900;2023-04-16T10:30:14;1.92;;;1.83;;
11620;SDS011;5866;49.094;11.900;2023-04-16T10:32:43;1.80;;;1.70;;
11620;SDS011;5866;49.094;11.900;2023-04-16T10:35:13;1.60;;;1.50;;
11620;SDS011;5866;49.094;11.900;2023-04-16T10:37:42;1.60;;;1.50;;
11620;SDS011;5866;49.094;11.900;2023-04-16T10:40:24;1.92;;;1.80;;
11620;SDS011;5866;49.094;11.900;2023-04-16T10:42:56;2.13;;;1.92;;
11620;SDS011;5866;49.094;11.900;2023-04-16T10:45:30;2.15;;;1.92;;
11620;SDS011;5866;49.094;11.900;2023-04-16T10:47:59;2.03;;;1.92;;
11620;SDS011;5866;49.094;11.900;2023-04-16T10:50:33;2.30;;;2.10;;
11620;SDS011;5866;49.094;11.900;2023-04-16T10:53:17;1.95;;;1.85;;
11620;SDS011;5866;49.094;11.900;2023-04-16T10:55:57;1.80;;;1.70;;
11620;SDS011;5866;49.094;11.900;2023-04-16T10:58:27;1.60;;;1.50;;
11620;SDS011;5866;49.094;11.900;2023-04-16T11:00:57;2.10;;;1.40;;
11620;SDS011;5866;49.094;11.900;2023-04-16T11:03:28;1.60;;;1.50;;
11620;SDS011;5866;49.094;11.900;2023-04-16T11:06:08;1.75;;;1.65;;
11620;SDS011;5866;49.094;11.900;2023-04-16T11:08:38;1.63;;;1.52;;
11620;SDS011;5866;49.094;11.900;2023-04-16T11:11:21;1.80;;;1.70;;
11620;SDS011;5866;49.094;11.900;2023-04-16T11:13:49;1.70;;;1.60;;
11620;SDS011;5866;49.094;11.900;2023-04-16T11:16:21;2.10;;;1.90;;
11620;SDS011;5866;49.094;11.900;2023-04-16T11:18:51;1.67;;;1.58;;
11620;SDS011;5866;49.094;11.900;2023-04-16T11:21:21;2.13;;;1.92;;
11620;SDS011;5866;49.094;11.900;2023-04-16T11:23:50;1.90;;;1.80;;
11620;SDS011;5866;49.094;11.900;2023-04-16T11:26:24;2.17;;;2.00;;
11620;SDS011;5866;49.094;11.900;2023-04-16T11:28:55;1.90;;;1.80;;
11620;SDS011;5866;49.094;11.900;2023-04-16T11:31:23;2.00;;;1.90;;
11620;SDS011;5866;49.094;11.900;2023-04-16T11:33:54;1.90;;;1.80;;
11620;SDS011;5866;49.094;11.900;2023-04-16T11:36:22;1.98;;;1.88;;
11620;SDS011;5866;49.094;11.900;2023-04-16T11:38:59;1.98;;;1.88;;
11620;SDS011;5866;49.094;11.900;2023-04-16T11:41:28;1.80;;;1.70;;
11620;SDS011;5866;49.094;11.900;2023-04-16T11:43:56;1.85;;;1.75;;
11620;SDS011;5866;49.094;11.900;2023-04-16T11:46:31;1.95;;;1.80;;
11620;SDS011;5866;49.094;11.900;2023-04-16T11:49:04;2.00;;;1.80;;
11620;SDS011;5866;49.094;11.900;2023-04-16T11:51:31;1.88;;;1.70;;
11620;SDS011;5866;49.094;11.900;2023-04-16T11:53:59;1.75;;;1.65;;
11620;SDS011;5866;49.094;11.900;2023-04-16T11:56:27;1.80;;;1.70;;
11620;SDS011;5866;49.094;11.900;2023-04-16T11:59:07;2.00;;;1.90;;
11620;SDS011;5866;49.094;11.900;2023-04-16T12:01:37;1.80;;;1.70;;
11620;SDS011;5866;49.094;11.900;2023-04-16T12:04:06;1.60;;;1.50;;
11620;SDS011;5866;49.094;11.900;2023-04-16T12:06:34;2.03;;;1.85;;
11620;SDS011;5866;49.094;11.900;2023-04-16T12:11:51;1.70;;;1.60;;
11620;SDS011;5866;49.094;11.900;2023-04-16T12:14:19;1.70;;;1.60;;
11620;SDS011;5866;49.094;11.900;2023-04-16T12:16:47;1.60;;;1.50;;
11620;SDS011;5866;49.094;11.900;2023-04-16T12:19:15;1.60;;;1.50;;
11620;SDS011;5866;49.094;11.900;2023-04-16T12:21:42;1.63;;;1.52;;
11620;SDS011;5866;49.094;11.900;2023-04-16T12:24:12;1.60;;;1.50;;
11620;SDS011;5866;49.094;11.900;2023-04-16T12:26:41;1.67;;;1.58;;
11620;SDS011;5866;49.094;11.900;2023-04-16T12:29:18;1.77;;;1.67;;
11620;SDS011;5866;49.094;11.900;2023-04-16T12:31:47;1.38;;;1.30;;
11620;SDS011;5866;49.094;11.900;2023-04-16T12:34:16;1.60;;;1.50;;
11620;SDS011;5866;49.094;11.900;2023-04-16T12:36:45;1.77;;;1.67;;
11620;SDS011;5866;49.094;11.900;2023-04-16T12:39:14;1.60;;;1.50;;
11620;SDS011;5866;49.094;11.900;2023-04-16T12:41:42;1.20;;;1.20;;
11620;SDS011;5866;49.094;11.900;2023-04-16T12:44:10;1.75;;;1.65;;
11620;SDS011;5866;49.094;11.900;2023-04-16T12:46:43;2.05;;;1.95;;
11620;SDS011;5866;49.094;11.900;2023-04-16T12:49:11;1.50;;;1.40;;
11620;SDS011;5866;49.094;11.900;2023-04-16T12:51:39;2.33;;;1.55;;
11620;SDS011;5866;49.094;11.900;2023-04-16T12:54:07;1.80;;;1.70;;
11620;SDS011;5866;49.094;11.900;2023-04-16T12:56:34;2.33;;;2.22;;
11620;SDS011;5866;49.094;11.900;2023-04-16T12:59:02;2.70;;;2.50;;
11620;SDS011;5866;49.094;11.900;2023-04-16T13:01:30;2.17;;;2.08;;
11620;SDS011;5866;49.094;11.900;2023-04-16T13:03:59;1.90;;;1.80;;
11620;SDS011;5866;49.094;11.900;2023-04-16T13:06:26;1.92;;;1.83;;
11620;SDS011;5866;49.094;11.900;2023-04-16T13:08:54;1.70;;;1.60;;
11620;SDS011;5866;49.094;11.900;2023-04-16T13:11:22;2.95;;;2.72;;
11620;SDS011;5866;49.094;11.900;2023-04-16T13:13:49;2.17;;;1.70;;
11620;SDS011;5866;49.094;11.900;2023-04-16T13:16:17;1.90;;;1.80;;
11620;SDS011;5866;49.094;11.900;2023-04-16T13:18:44;2.63;;;1.80;;
11620;SDS011;5866;49.094;11.900;2023-04-16T13:21:13;3.17;;;2.88;;
11620;SDS011;5866;49.094;11.900;2023-04-16T13:23:41;4.97;;;3.40;;
11620;SDS011;5866;49.094;11.900;2023-04-16T13:26:08;2.33;;;2.20;;
11620;SDS011;5866;49.094;11.900;2023-04-16T13:28:38;2.50;;;2.30;;
11620;SDS011;5866;49.094;11.900;2023-04-16T13:31:05;2.80;;;2.60;;
11620;SDS011;5866;49.094;11.900;2023-04-16T13:33:33;2.88;;;2.67;;
11620;SDS011;5866;49.094;11.900;2023-04-16T13:36:00;3.00;;;2.80;;
11620;SDS011;5866;49.094;11.900;2023-04-16T13:38:29;3.35;;;3.15;;
11620;SDS011;5866;49.094;11.900;2023-04-16T13:40:56;2.97;;;2.72;;
11620;SDS011;5866;49.094;11.900;2023-04-16T13:43:24;3.20;;;2.90;;
11620;SDS011;5866;49.094;11.900;2023-04-16T13:45:51;3.15;;;2.95;;
11620;SDS011;5866;49.094;11.900;2023-04-16T13:48:19;3.33;;;2.47;;
11620;SDS011;5866;49.094;11.900;2023-04-16T13:50:46;2.85;;;2.53;;
11620;SDS011;5866;49.094;11.900;2023-04-16T13:53:14;2.83;;;2.63;;
11620;SDS011;5866;49.094;11.900;2023-04-16T13:55:43;2.72;;;2.38;;
11620;SDS011;5866;49.094;11.900;2023-04-16T13:58:10;2.97;;;2.78;;
11620;SDS011;5866;49.094;11.900;2023-04-16T14:00:38;2.30;;;2.20;;
11620;SDS011;5866;49.094;11.900;2023-04-16T14:03:06;2.70;;;2.50;;
11620;SDS011;5866;49.094;11.900;2023-04-16T14:05:33;2.47;;;2.35;;
11620;SDS011;5866;49.094;11.900;2023-04-16T14:08:01;2.53;;;2.33;;
11620;SDS011;5866;49.094;11.900;2023-04-16T14:10:29;2.90;;;2.58;;
11620;SDS011;5866;49.094;11.900;2023-04-16T14:12:58;3.15;;;2.22;;
11620;SDS011;5866;49.094;11.900;2023-04-16T14:15:26;2.10;;;2.00;;
11620;SDS011;5866;49.094;11.900;2023-04-16T14:17:55;2.10;;;2.00;;
11620;SDS011;5866;49.094;11.900;2023-04-16T14:20:22;1.60;;;1.50;;
11620;SDS011;5866;49.094;11.900;2023-04-16T14:22:50;2.20;;;2.10;;
11620;SDS011;5866;49.094;11.900;2023-04-16T14:25:17;2.03;;;1.90;;
11620;SDS011;5866;49.094;11.900;2023-04-16T14:27:44;1.92;;;1.80;;
11620;SDS011;5866;49.094;11.900;2023-04-16T14:30:13;2.70;;;1.83;;
11620;SDS011;5866;49.094;11.900;2023-04-16T14:32:41;2.00;;;1.90;;
11620;SDS011;5866;49.094;11.900;2023-04-16T14:35:09;1.85;;;1.75;;
11620;SDS011;5866;49.094;11.900;2023-04-16T14:37:36;1.80;;;1.70;;
11620;SDS011;5866;49.094;11.900;2023-04-16T14:40:04;2.10;;;2.00;;
11620;SDS011;5866;49.094;11.900;2023-04-16T14:42:34;2.47;;;2.33;;
11620;SDS011;5866;49.094;11.900;2023-04-16T14:45:02;3.10;;;2.20;;
11620;SDS011;5866;49.094;11.900;2023-04-16T14:47:33;2.25;;;2.05;;
11620;SDS011;5866;49.094;11.900;2023-04-16T14:50:01;2.50;;;2.30;;
11620;SDS011;5866;49.094;11.900;2023-04-16T14:52:29;2.17;;;2.08;;
11620;SDS011;5866;49.094;11.900;2023-04-16T14:54:57;2.85;;;2.08;;
11620;SDS011;5866;49.094;11.900;2023-04-16T14:57:24;2.10;;;2.00;;